x

Rock Of Ages, Mi (roam4) Weather Station

10:00am - Sun 28th May 2017 All times are CDT. -5 hours from GMT.

  • Wind
    1mph, 2mph gusts
  • Air Temp 54°f
  • Sea Pressure 1006.5mb
  • Rock Of Ages, Mi
  • Rock Of Ages, Mi

More Historic Weather Station data

Upgrade to MSW Pro to gain access to the past 30 days of data for over 8000 Wavebouys and Weather Stations around the globe.

Join Pro

Comparision Forecast

View Surf forecast
   
Sun 05/28 10:00am 1 2 mph 1006.5mb 54f
9:00am 5 5 mph 1006.4mb 56f
8:00am 7 8 mph 1006.7mb 52f
7:00am 26 28 mph 1005.6mb 58f
6:00am 28 29 mph 1006.6mb 51f
5:00am 8 10 mph 1007.5mb 46f
4:00am 11 13 mph 1007.3mb 47f
3:00am 15 15 mph 1007.5mb 48f
2:00am 10 11 mph 1008.2mb 51f
1:00am 7 8 mph 1008.7mb 50f
12:00am 8 9 mph 1009mb 50f
Sat 05/27 11:00pm 6 7 mph 1009.4mb 52f
10:00pm 8 9 mph 1010.1mb 48f
9:00pm 18 18 mph 1009.8mb 56f
8:00pm 20 21 mph 1009.7mb 58f
7:00pm 22 23 mph 1009.4mb 63f
6:00pm 24 24 mph 1010mb 58f
5:00pm 28 28 mph 1010.8mb 54f
4:00pm 22 23 mph 1011mb 47f
3:00pm 18 20 mph 1011.3mb 49f
2:00pm 15 18 mph 1011mb 49f
1:00pm 10 13 mph 1011.2mb 49f
12:00pm 8 9 mph 1011.1mb 51f
11:00am 7 8 mph 1011.4mb 52f
10:00am 5 6 mph 1011.1mb 53f
9:00am 5 5 mph 1010.6mb 53f
8:00am 7 7 mph 1010.7mb 50f
7:00am 10 10 mph 1010.7mb 50f
6:00am 8 8 mph 1010.8mb 50f
5:00am 2 2 mph 1010.3mb 45f
4:00am 6 7 mph 1010mb 50f
3:00am 7 7 mph 1010mb 49f
2:00am 9 9 mph 1010.3mb 50f
1:00am 11 11 mph 1010.3mb 47f
12:00am 15 16 mph 1009.8mb 54f
Fri 05/26 11:00pm 8 8 mph 1010.3mb 51f
10:00pm 11 13 mph 1010.2mb 49f
9:00pm 10 11 mph 1009.5mb 52f
8:00pm 6 7 mph 1010.1mb 49f
7:00pm 10 14 mph 1009.6mb 56f
6:00pm 14 14 mph 1009.1mb 57f
5:00pm 9 9 mph 1009.5mb 55f
4:00pm 10 10 mph 1009.9mb 53f
3:00pm 6 6 mph 1010.1mb 53f
2:00pm 3 5 mph 1010.5mb 55f
1:00pm 8 8 mph 1010.6mb 52f
12:00pm 11 11 mph 1010.8mb 50f
11:00am 6 7 mph 1010.7mb 48f
10:00am 8 9 mph 1010.5mb 47f
9:00am 13 16 mph 1010.4mb 49f
8:00am 17 20 mph 1010.1mb 50f
7:00am 7 9 mph 1010.5mb 51f
6:00am 8 8 mph 1010.2mb 51f
5:00am 9 9 mph 1010.1mb 51f
4:00am 6 6 mph 1010.4mb 49f
3:00am 7 8 mph 1010.1mb 49f
2:00am 6 7 mph 1009.8mb 49f
1:00am 8 8 mph 1009.5mb 51f
12:00am 8 9 mph 1009.6mb 51f
Thu 05/25 11:00pm 7 8 mph 1009.6mb 51f
10:00pm 8 9 mph 1009mb 51f
9:00pm  -  2 mph 1009mb 53f
8:00pm 2 3 mph 1008.2mb 57f
7:00pm 9 9 mph 1007.7mb 62f
6:00pm 3 5 mph 1008.5mb 53f
5:00pm 5 6 mph 1008.4mb 53f
4:00pm 3 3 mph 1008.7mb 51f
3:00pm 8 9 mph 1009.3mb 50f
2:00pm 5 7 mph 1009.4mb 55f
1:00pm 6 7 mph 1009.7mb 48f
12:00pm 6 7 mph 1009.8mb 47f
11:00am 13 14 mph 1010mb 47f
10:00am 13 14 mph 1010.3mb 47f
9:00am 14 15 mph 1010.4mb 49f
8:00am 15 16 mph 1010.4mb 50f
7:00am 14 15 mph 1010.2mb 50f
6:00am 11 13 mph 1010.2mb 49f
5:00am 11 11 mph 1010.1mb 46f
4:00am 11 11 mph 1010.1mb 46f
3:00am 8 8 mph 1010.3mb 45f
2:00am 6 6 mph 1010.2mb 46f
1:00am 7 7 mph 1010.2mb 44f
12:00am 3 3 mph 1010.4mb 49f
Wed 05/24 11:00pm 3 5 mph 1010.4mb 48f
10:00pm 9 10 mph 1010mb 51f
9:00pm 5 6 mph 1010mb 49f
8:00pm 9 9 mph 1010.1mb 53f
7:00pm 7 7 mph 1009.9mb 54f
6:00pm 3 3 mph 1010.2mb 54f
5:00pm 3 5 mph 1010.5mb 51f